createdAt,value
2018-06-16T00:00:29.719Z,63.30
2018-06-16T00:01:33.112Z,63.40
2018-06-16T00:02:36.524Z,63.50
2018-06-16T00:03:39.911Z,63.50
2018-06-16T00:04:43.347Z,63.60
2018-06-16T00:05:47.991Z,63.60
2018-06-16T00:06:51.538Z,63.70
2018-06-16T00:07:54.900Z,63.70
2018-06-16T00:08:58.271Z,63.80
2018-06-16T00:10:01.676Z,63.80
2018-06-16T00:11:06.179Z,63.90
2018-06-16T00:12:09.607Z,63.90
2018-06-16T00:13:12.975Z,63.90
2018-06-16T00:14:16.369Z,64.00
2018-06-16T00:15:20.937Z,64.70
2018-06-16T00:16:25.191Z,64.70
2018-06-16T00:17:28.617Z,63.90
2018-06-16T00:18:31.996Z,63.90
2018-06-16T00:19:35.427Z,64.00
2018-06-16T00:20:39.905Z,64.10
2018-06-16T00:21:43.331Z,64.30
2018-06-16T00:22:46.711Z,64.30
2018-06-16T00:23:50.108Z,64.40
2018-06-16T00:24:58.281Z,64.50
2018-06-16T00:26:02.835Z,64.50
2018-06-16T00:30:16.860Z,64.70
2018-06-16T00:31:21.332Z,64.90
2018-06-16T00:32:25.175Z,65.10
2018-06-16T00:33:28.555Z,65.20
2018-06-16T00:34:31.986Z,65.30
2018-06-16T00:35:36.600Z,65.40
2018-06-16T00:36:39.993Z,65.60
2018-06-16T00:37:43.375Z,65.70
2018-06-16T00:39:49.975Z,65.80
2018-06-16T00:40:54.478Z,65.80
2018-06-16T00:41:57.874Z,65.80
2018-06-16T00:43:01.265Z,65.90
2018-06-16T00:44:04.644Z,65.90
2018-06-16T00:45:09.420Z,65.90
2018-06-16T00:46:13.892Z,65.90
2018-06-16T00:49:23.492Z,66.10
2018-06-16T00:51:31.451Z,66.40
2018-06-16T00:52:34.857Z,66.50
2018-06-16T00:53:38.223Z,66.70
2018-06-16T00:54:41.601Z,66.80
2018-06-16T00:55:45.976Z,67.00
2018-06-16T00:57:00.831Z,67.20
2018-06-16T00:58:04.220Z,67.30
2018-06-16T00:59:07.597Z,67.50
2018-06-16T01:00:12.384Z,67.50
2018-06-16T01:02:19.525Z,68.00
2018-06-16T01:03:22.899Z,68.10
2018-06-16T01:04:26.283Z,68.30
2018-06-16T01:05:30.691Z,68.50
2018-06-16T01:06:34.105Z,68.70
2018-06-16T01:07:37.987Z,69.50
2018-06-16T01:08:41.356Z,69.10
2018-06-16T01:09:44.975Z,69.20
2018-06-16T01:10:49.541Z,69.40
2018-06-16T01:11:52.968Z,69.50
2018-06-16T01:12:56.339Z,69.80
2018-06-16T01:13:59.719Z,70.10
2018-06-16T01:15:03.206Z,70.40
2018-06-16T01:16:07.828Z,70.60
2018-06-16T01:17:11.291Z,70.80
2018-06-16T01:18:14.663Z,71.10
2018-06-16T01:20:22.253Z,71.70
2018-06-16T01:21:26.179Z,72.00
2018-06-16T01:22:29.999Z,72.30
2018-06-16T01:23:33.388Z,72.50
2018-06-16T01:24:36.787Z,72.50
2018-06-16T01:25:41.347Z,72.80
2018-06-16T01:26:44.791Z,73.10
2018-06-16T01:27:48.171Z,73.50
2018-06-16T01:28:51.551Z,73.80
2018-06-16T01:29:55.131Z,74.10
2018-06-16T01:30:59.732Z,74.30
2018-06-16T01:32:03.199Z,74.50
2018-06-16T01:33:06.571Z,74.60
2018-06-16T01:35:14.338Z,75.00
2018-06-16T01:37:21.823Z,75.50
2018-06-16T01:38:25.203Z,75.60
2018-06-16T01:39:28.583Z,75.80
2018-06-16T01:40:33.024Z,76.00
2018-06-16T01:41:36.676Z,76.20
2018-06-16T01:42:40.096Z,76.30
2018-06-16T01:43:43.468Z,76.40
2018-06-16T01:44:46.851Z,76.60
2018-06-16T01:45:51.606Z,76.60
2018-06-16T01:46:54.996Z,76.80
2018-06-16T01:47:58.391Z,76.90
2018-06-16T01:49:02.115Z,77.00
2018-06-16T01:50:06.550Z,77.10
2018-06-16T01:51:11.907Z,77.20
2018-06-16T01:53:18.400Z,77.40
2018-06-16T01:54:21.788Z,77.50
2018-06-16T01:55:26.250Z,77.60
2018-06-16T01:57:33.115Z,77.70
2018-06-16T01:58:36.516Z,77.90
2018-06-16T01:59:39.896Z,78.10
2018-06-16T02:00:44.150Z,78.30
2018-06-16T02:01:47.544Z,78.50
2018-06-16T02:02:50.923Z,78.60
2018-06-16T02:03:54.323Z,78.80
2018-06-16T02:04:57.703Z,78.90
2018-06-16T02:06:02.530Z,79.00
2018-06-16T02:07:05.939Z,79.20
2018-06-16T02:08:09.328Z,79.30
2018-06-16T02:09:12.931Z,79.40
2018-06-16T02:10:17.428Z,79.60
2018-06-16T02:11:21.919Z,79.80
2018-06-16T02:12:25.339Z,80.60
2018-06-16T02:13:28.747Z,80.20
2018-06-16T02:16:39.580Z,80.60
2018-06-16T02:17:42.958Z,80.70
2018-06-16T02:18:46.352Z,80.90
2018-06-16T02:19:50.024Z,81.00
2018-06-16T02:20:54.516Z,81.10
2018-06-16T02:21:57.931Z,81.30
2018-06-16T02:23:01.300Z,81.50
2018-06-16T02:24:04.692Z,81.70
2018-06-16T02:25:09.438Z,81.90
2018-06-16T02:26:13.888Z,82.10
2018-06-16T02:27:17.303Z,82.30
2018-06-16T02:28:20.699Z,82.40
2018-06-16T02:29:24.087Z,82.60
2018-06-16T02:30:28.503Z,82.80
2018-06-16T02:31:32.008Z,83.00
2018-06-16T02:32:35.419Z,83.10
2018-06-16T02:36:48.703Z,83.40
2018-06-16T02:37:52.420Z,83.40
2018-06-16T02:38:56.099Z,83.40
2018-06-16T02:39:59.489Z,83.50
2018-06-16T02:41:03.975Z,83.60
2018-06-16T02:42:07.383Z,83.70
2018-06-16T02:43:10.812Z,83.90
2018-06-16T02:44:14.192Z,84.10
2018-06-16T02:45:18.594Z,84.20
2018-06-16T02:46:22.928Z,85.00
2018-06-16T02:49:32.454Z,85.00
2018-06-16T02:50:38.049Z,84.50
2018-06-16T02:52:51.585Z,85.30
2018-06-16T02:53:54.966Z,85.40
2018-06-16T02:54:58.355Z,85.50
2018-06-16T02:56:02.794Z,85.40
2018-06-16T03:01:20.580Z,85.90
2018-06-16T03:02:26.960Z,85.90
2018-06-16T03:03:30.335Z,86.00
2018-06-16T03:04:33.736Z,86.10
2018-06-16T03:05:38.204Z,86.10
2018-06-16T03:06:41.604Z,86.20
2018-06-16T03:07:45.028Z,86.30
2018-06-16T03:08:48.405Z,86.50
2018-06-16T03:09:51.823Z,86.60
2018-06-16T03:10:56.287Z,86.70
2018-06-16T03:11:59.703Z,87.40
2018-06-16T03:13:03.100Z,86.90
2018-06-16T03:14:06.570Z,87.50
2018-06-16T03:15:10.564Z,86.90
2018-06-16T03:16:14.427Z,86.80
2018-06-16T03:17:17.808Z,86.90
2018-06-16T03:18:21.219Z,86.90
2018-06-16T03:19:24.601Z,86.90
2018-06-16T03:20:29.941Z,86.90
2018-06-16T03:21:33.351Z,86.90
2018-06-16T03:22:36.770Z,87.00
2018-06-16T03:23:40.189Z,87.10
2018-06-16T03:24:43.563Z,87.10
2018-06-16T03:25:48.048Z,87.10
2018-06-16T03:26:51.571Z,87.10
2018-06-16T03:27:54.939Z,87.20
2018-06-16T03:30:01.430Z,87.40
2018-06-16T03:31:05.994Z,87.40
2018-06-16T03:32:09.383Z,87.50
2018-06-16T03:33:12.763Z,87.60
2018-06-16T03:34:16.179Z,87.70
2018-06-16T03:35:20.580Z,87.70
2018-06-16T03:36:25.221Z,87.80
2018-06-16T03:37:28.584Z,87.80
2018-06-16T03:38:31.955Z,87.90
2018-06-16T03:39:35.356Z,87.90
2018-06-16T03:40:39.730Z,88.10
2018-06-16T03:41:43.127Z,88.20
2018-06-16T03:42:46.503Z,88.30
2018-06-16T03:43:49.891Z,88.30
2018-06-16T03:44:53.287Z,88.30
2018-06-16T03:45:57.808Z,88.40
2018-06-16T03:47:01.212Z,88.60
2018-06-16T03:48:04.919Z,88.50
2018-06-16T03:49:08.751Z,88.70
2018-06-16T03:50:13.207Z,88.80
2018-06-16T03:51:17.785Z,89.00
2018-06-16T03:52:21.171Z,89.00
2018-06-16T03:53:24.575Z,89.00
2018-06-16T03:54:27.955Z,89.20
2018-06-16T03:55:32.319Z,89.20
2018-06-16T03:56:35.752Z,89.20
2018-06-16T03:57:39.131Z,89.20
2018-06-16T03:58:42.537Z,89.20
2018-06-16T03:59:45.915Z,89.40
2018-06-16T04:00:50.468Z,89.40
2018-06-16T04:01:53.926Z,89.50
2018-06-16T04:02:57.251Z,89.60
2018-06-16T04:04:00.771Z,89.60
2018-06-16T04:05:05.413Z,89.60
2018-06-16T04:06:09.954Z,89.60
2018-06-16T04:07:13.440Z,89.70
2018-06-16T04:08:16.867Z,89.80
2018-06-16T04:09:20.248Z,89.80
2018-06-16T04:10:24.694Z,89.80
2018-06-16T04:11:28.891Z,89.90
2018-06-16T04:12:32.280Z,89.90
2018-06-16T04:13:35.684Z,90.00
2018-06-16T04:16:46.936Z,90.00
2018-06-16T04:17:50.335Z,90.00
2018-06-16T04:18:53.743Z,90.00
2018-06-16T04:22:03.960Z,90.00
2018-06-16T04:23:07.351Z,89.90
2018-06-16T04:24:10.931Z,90.00
2018-06-16T04:25:15.736Z,90.00
2018-06-16T04:27:23.127Z,89.90
2018-06-16T04:28:26.511Z,89.80
2018-06-16T04:29:29.899Z,89.80
2018-06-16T04:30:34.919Z,89.70
2018-06-16T04:31:38.331Z,89.70
2018-06-16T04:32:41.727Z,89.60
2018-06-16T04:33:45.287Z,89.70
2018-06-16T04:34:55.121Z,89.50
2018-06-16T04:35:59.479Z,89.50
2018-06-16T04:37:03.335Z,89.40
2018-06-16T04:38:06.751Z,89.20
2018-06-16T04:39:10.513Z,89.20
2018-06-16T04:40:15.006Z,89.10
2018-06-16T04:41:19.337Z,88.90
2018-06-16T04:42:22.740Z,88.90
2018-06-16T04:43:26.141Z,88.80
2018-06-16T04:44:29.561Z,88.70
2018-06-16T04:45:34.997Z,88.50
2018-06-16T04:48:44.554Z,88.20
2018-06-16T04:49:47.932Z,88.10
2018-06-16T04:50:52.387Z,88.10
2018-06-16T04:51:55.805Z,87.80
2018-06-16T04:54:02.278Z,87.60
2018-06-16T04:55:06.741Z,87.50
2018-06-16T04:56:11.055Z,87.50
2018-06-16T04:57:14.455Z,87.50
2018-06-16T04:58:17.839Z,87.40
2018-06-16T04:59:21.235Z,87.40
2018-06-16T05:00:26.815Z,87.40
2018-06-16T05:01:30.635Z,87.40
2018-06-16T05:02:34.020Z,87.30
2018-06-16T05:03:37.407Z,87.30
2018-06-16T05:04:40.815Z,87.40
2018-06-16T05:05:46.192Z,87.50
2018-06-16T05:06:49.615Z,87.50
2018-06-16T05:07:52.995Z,87.60
2018-06-16T05:08:56.440Z,87.60
2018-06-16T05:09:59.846Z,87.80
2018-06-16T05:11:04.215Z,87.90
2018-06-16T05:13:10.695Z,88.20
2018-06-16T05:14:14.059Z,88.20
2018-06-16T05:16:22.571Z,88.80
2018-06-16T05:22:48.775Z,89.10
2018-06-16T05:23:52.160Z,89.10
2018-06-16T05:24:55.538Z,89.10
2018-06-16T05:26:00.045Z,89.10
2018-06-16T05:27:03.451Z,89.00
2018-06-16T05:28:06.828Z,89.20
2018-06-16T05:29:10.212Z,89.20
2018-06-16T05:30:14.632Z,89.00
2018-06-16T05:31:19.506Z,88.90
2018-06-16T05:32:22.921Z,88.80
2018-06-16T05:33:26.312Z,88.70
2018-06-16T05:34:29.727Z,88.60
2018-06-16T05:35:34.551Z,88.50
2018-06-16T05:36:38.008Z,88.40
2018-06-16T05:37:41.396Z,88.30
2018-06-16T05:38:44.787Z,88.20
2018-06-16T05:39:49.035Z,88.20
2018-06-16T05:40:54.159Z,88.10
2018-06-16T05:41:57.598Z,88.10
2018-06-16T05:43:00.970Z,88.00
2018-06-16T05:44:04.373Z,87.70
2018-06-16T05:45:08.818Z,87.40
2018-06-16T05:46:13.438Z,87.10
2018-06-16T05:47:16.859Z,86.70
2018-06-16T05:48:20.231Z,86.80
2018-06-16T05:49:23.619Z,85.80
2018-06-16T05:50:28.150Z,85.30
2018-06-16T05:51:31.608Z,85.00
2018-06-16T05:52:35.008Z,85.30
2018-06-16T05:53:38.393Z,84.30
2018-06-16T05:54:41.772Z,84.10
2018-06-16T05:55:46.092Z,83.90
2018-06-16T05:56:49.731Z,83.60
2018-06-16T05:57:53.143Z,83.40
2018-06-16T05:58:56.707Z,83.30
2018-06-16T06:00:06.823Z,84.00
2018-06-16T06:01:12.116Z,83.40
2018-06-16T06:03:18.644Z,83.60
2018-06-16T06:04:22.020Z,83.50
2018-06-16T06:05:26.458Z,83.60
2018-06-16T06:06:30.001Z,83.10
2018-06-16T06:07:33.415Z,83.10
2018-06-16T06:08:36.831Z,82.90
2018-06-16T06:09:40.219Z,82.60
2018-06-16T06:10:44.634Z,82.20
2018-06-16T06:11:48.099Z,82.10
2018-06-16T06:12:54.306Z,82.00
2018-06-16T06:15:00.964Z,82.10
2018-06-16T06:16:05.350Z,82.20
2018-06-16T06:17:08.739Z,81.90
2018-06-16T06:18:12.123Z,81.60
2018-06-16T06:19:15.535Z,81.20
2018-06-16T06:20:19.376Z,81.60
2018-06-16T06:21:24.296Z,80.80
2018-06-16T06:23:30.788Z,81.10
2018-06-16T06:24:34.191Z,80.30
2018-06-16T06:26:41.293Z,79.30
2018-06-16T06:27:44.663Z,78.50
2018-06-16T06:30:55.147Z,76.00
2018-06-16T06:31:58.652Z,75.20
2018-06-16T06:33:01.980Z,74.00
2018-06-16T06:34:05.376Z,73.30
2018-06-16T06:36:14.740Z,71.90
2018-06-16T06:37:18.155Z,71.60
2018-06-16T06:38:21.643Z,71.40
2018-06-16T06:39:25.040Z,70.90
2018-06-16T06:40:29.590Z,70.80
2018-06-16T06:41:32.996Z,70.70
2018-06-16T06:42:36.410Z,70.70
2018-06-16T06:43:39.819Z,70.70
2018-06-16T06:44:43.196Z,70.60
2018-06-16T06:45:47.581Z,70.60
2018-06-16T06:46:51.000Z,70.40
2018-06-16T06:47:54.370Z,70.40
2018-06-16T06:48:57.767Z,70.20
2018-06-16T06:50:01.145Z,70.20
2018-06-16T06:51:05.744Z,70.30
2018-06-16T06:52:09.155Z,70.50
2018-06-16T06:53:12.547Z,70.60
2018-06-16T06:54:15.947Z,70.50
2018-06-16T06:56:23.903Z,70.10
2018-06-16T06:57:27.303Z,69.80
2018-06-16T06:58:30.771Z,69.80
2018-06-16T06:59:34.152Z,69.60
2018-06-16T07:00:38.576Z,69.40
2018-06-16T07:01:42.008Z,69.30
2018-06-16T07:02:45.387Z,68.90
2018-06-16T07:03:48.763Z,68.60
2018-06-16T07:04:52.151Z,68.30
2018-06-16T07:05:56.658Z,67.70
2018-06-16T07:07:00.075Z,67.30
2018-06-16T07:10:11.417Z,66.20
2018-06-16T07:12:18.727Z,65.50
2018-06-16T07:13:22.107Z,65.10
2018-06-16T07:14:25.491Z,65.00
2018-06-16T07:15:30.549Z,64.90
2018-06-16T07:16:33.952Z,64.80
2018-06-16T07:17:37.352Z,63.90
2018-06-16T07:18:40.725Z,63.80
2018-06-16T07:19:44.102Z,64.00
2018-06-16T07:20:48.658Z,64.10
2018-06-16T07:21:52.052Z,64.10
2018-06-16T07:22:55.468Z,64.10
2018-06-16T07:23:58.883Z,64.80
2018-06-16T07:25:02.285Z,64.30
2018-06-16T07:26:06.642Z,64.30
2018-06-16T07:27:10.071Z,64.40
2018-06-16T07:28:13.512Z,64.50
2018-06-16T07:30:21.143Z,64.60
2018-06-16T07:31:26.215Z,64.70
2018-06-16T07:32:29.615Z,64.80
2018-06-16T07:34:36.156Z,65.00
2018-06-16T07:35:40.757Z,65.20
2018-06-16T07:37:47.272Z,65.20
2018-06-16T07:38:50.693Z,65.30
2018-06-16T07:39:54.431Z,65.40
2018-06-16T07:40:59.071Z,65.30
2018-06-16T07:42:02.513Z,65.40
2018-06-16T07:43:05.883Z,65.50
2018-06-16T07:44:09.287Z,65.40
2018-06-16T07:45:13.786Z,65.40
2018-06-16T07:46:18.406Z,65.20
2018-06-16T07:47:21.868Z,65.20
2018-06-16T07:48:25.254Z,65.30
2018-06-16T07:49:28.651Z,65.60
2018-06-16T07:50:33.165Z,65.50
2018-06-16T07:51:36.556Z,65.20
2018-06-16T07:52:39.944Z,65.10
2018-06-16T07:53:43.340Z,65.10
2018-06-16T07:54:46.747Z,65.00
2018-06-16T07:55:51.180Z,64.90
2018-06-16T07:56:54.598Z,64.60
2018-06-16T07:57:57.975Z,63.90
2018-06-16T07:59:01.363Z,63.40
2018-06-16T08:00:05.775Z,63.10
2018-06-16T08:01:10.648Z,63.30
2018-06-16T08:02:14.043Z,63.50
2018-06-16T08:03:17.452Z,63.50
2018-06-16T08:04:20.831Z,63.70
2018-06-16T08:05:25.402Z,63.60
2018-06-16T08:07:32.560Z,63.40
2018-06-16T08:08:35.940Z,63.30
2018-06-16T08:09:39.339Z,63.20
2018-06-16T08:10:43.950Z,63.20
2018-06-16T08:11:47.390Z,63.10
2018-06-16T08:12:50.792Z,62.80
2018-06-16T08:13:54.216Z,62.50
2018-06-16T08:14:57.591Z,62.40
2018-06-16T08:16:02.595Z,62.40
2018-06-16T08:17:06.002Z,62.20
2018-06-16T08:18:09.442Z,62.00
2018-06-16T08:19:12.779Z,62.30
2018-06-16T08:20:17.308Z,62.40
2018-06-16T08:21:21.867Z,63.10
2018-06-16T08:22:25.259Z,62.60
2018-06-16T08:23:28.649Z,62.50
2018-06-16T08:24:32.079Z,62.40
2018-06-16T08:25:36.313Z,62.20
2018-06-16T08:26:42.735Z,62.30
2018-06-16T08:27:46.111Z,62.30
2018-06-16T08:28:49.491Z,62.10
2018-06-16T08:29:52.876Z,61.90
2018-06-16T08:30:58.194Z,61.60
2018-06-16T08:32:01.627Z,61.30
2018-06-16T08:33:05.036Z,61.20
2018-06-16T08:34:08.426Z,61.30
2018-06-16T08:35:12.821Z,61.70
2018-06-16T08:36:17.296Z,61.40
2018-06-16T08:37:20.728Z,61.00
2018-06-16T08:38:24.111Z,60.50
2018-06-16T08:39:27.834Z,60.10
2018-06-16T08:40:32.283Z,59.80
2018-06-16T08:41:35.720Z,60.00
2018-06-16T08:42:39.371Z,60.30
2018-06-16T08:43:42.743Z,60.30
2018-06-16T08:44:46.147Z,60.00
2018-06-16T08:45:50.877Z,59.90
2018-06-16T08:46:54.303Z,59.80
2018-06-16T08:47:57.709Z,58.90
2018-06-16T08:49:01.088Z,58.40
2018-06-16T08:50:05.365Z,58.40
2018-06-16T08:51:09.895Z,58.40
2018-06-16T08:52:13.411Z,58.50
2018-06-16T08:53:16.823Z,58.60
2018-06-16T08:54:20.200Z,58.70
2018-06-16T08:55:24.549Z,58.70
2018-06-16T08:56:29.017Z,58.80
2018-06-16T08:57:32.427Z,58.80
2018-06-16T08:58:35.843Z,58.60
2018-06-16T08:59:45.684Z,58.10
2018-06-16T09:00:50.137Z,57.90
2018-06-16T09:01:53.559Z,57.90
2018-06-16T09:02:56.962Z,58.00
2018-06-16T09:04:00.400Z,58.00
2018-06-16T09:05:04.356Z,57.80
2018-06-16T09:06:08.966Z,57.80
2018-06-16T09:07:12.379Z,58.10
2018-06-16T09:08:15.771Z,58.10
2018-06-16T09:09:19.214Z,58.10
2018-06-16T09:10:23.686Z,57.90
2018-06-16T09:11:28.105Z,57.80
2018-06-16T09:12:31.467Z,57.80
2018-06-16T09:13:34.855Z,57.60
2018-06-16T09:14:38.263Z,57.60
2018-06-16T09:15:43.183Z,57.60
2018-06-16T09:16:46.603Z,57.60
2018-06-16T09:17:50.143Z,57.50
2018-06-16T09:18:53.523Z,57.50
2018-06-16T09:19:57.124Z,57.50
2018-06-16T09:21:01.539Z,57.30
2018-06-16T09:23:08.039Z,57.80
2018-06-16T09:24:11.455Z,57.40
2018-06-16T09:25:15.280Z,57.30
2018-06-16T09:26:19.202Z,57.30
2018-06-16T09:28:25.952Z,56.80
2018-06-16T09:29:29.332Z,56.80
2018-06-16T09:30:35.038Z,56.80
2018-06-16T09:31:38.443Z,56.60
2018-06-16T09:32:41.823Z,56.40
2018-06-16T09:33:45.203Z,56.30
2018-06-16T09:34:48.583Z,56.30
2018-06-16T09:35:53.112Z,56.30
2018-06-16T09:36:56.513Z,56.40
2018-06-16T09:37:59.900Z,56.30
2018-06-16T09:39:03.412Z,56.10
2018-06-16T09:41:11.660Z,55.40
2018-06-16T09:42:15.048Z,55.50
2018-06-16T09:43:18.543Z,55.50
2018-06-16T09:44:21.912Z,55.40
2018-06-16T09:45:26.476Z,55.20
2018-06-16T09:48:36.172Z,54.60
2018-06-16T09:49:39.555Z,54.60
2018-06-16T09:50:44.402Z,54.60
2018-06-16T09:51:47.830Z,54.50
2018-06-16T09:53:54.284Z,53.40
2018-06-16T09:54:57.655Z,52.90
2018-06-16T09:56:02.713Z,52.50
2018-06-16T09:57:06.130Z,52.20
2018-06-16T09:58:09.510Z,51.40
2018-06-16T09:59:12.888Z,50.60
2018-06-16T10:00:22.493Z,49.10
2018-06-16T10:02:29.875Z,48.90
2018-06-16T10:03:33.255Z,49.10
2018-06-16T10:04:36.635Z,49.50
2018-06-16T10:05:41.058Z,50.00
2018-06-16T10:06:44.943Z,50.10
2018-06-16T10:07:48.408Z,50.00
2018-06-16T10:08:52.359Z,50.00
2018-06-16T10:09:55.764Z,50.00
2018-06-16T10:11:00.302Z,50.20
2018-06-16T10:12:03.717Z,50.20
2018-06-16T10:13:07.205Z,50.40
2018-06-16T10:14:10.580Z,50.70
2018-06-16T10:15:15.112Z,50.90
2018-06-16T10:16:19.716Z,50.70
2018-06-16T10:17:23.145Z,50.10
2018-06-16T10:18:26.556Z,49.90
2018-06-16T10:19:29.935Z,49.90
2018-06-16T10:20:34.381Z,49.60
2018-06-16T10:21:37.784Z,49.70
2018-06-16T10:22:41.175Z,49.90
2018-06-16T10:26:54.761Z,50.30
2018-06-16T10:27:58.140Z,50.30
2018-06-16T10:29:01.589Z,50.30
2018-06-16T10:30:05.994Z,50.40
2018-06-16T10:32:13.223Z,50.40
2018-06-16T10:33:16.619Z,50.10
2018-06-16T10:34:20.007Z,50.10
2018-06-16T10:35:24.474Z,50.00
2018-06-16T10:36:29.204Z,50.00
2018-06-16T10:37:32.579Z,50.00
2018-06-16T10:40:43.652Z,49.60
2018-06-16T10:41:47.054Z,49.50
2018-06-16T10:44:56.641Z,49.00
2018-06-16T10:46:01.169Z,49.00
2018-06-16T10:47:04.627Z,48.70
2018-06-16T10:48:08.027Z,49.40
2018-06-16T10:49:11.427Z,49.00
2018-06-16T10:50:15.903Z,48.90
2018-06-16T10:51:20.389Z,49.00
2018-06-16T10:52:23.810Z,48.80
2018-06-16T10:53:27.187Z,48.60
2018-06-16T10:54:30.579Z,48.50
2018-06-16T10:55:35.212Z,48.70
2018-06-16T10:56:38.615Z,49.00
2018-06-16T10:57:42.000Z,49.00
2018-06-16T10:58:45.391Z,49.20
2018-06-16T10:59:48.767Z,49.20
2018-06-16T11:00:53.052Z,49.20
2018-06-16T11:01:56.459Z,49.20
2018-06-16T11:02:59.935Z,49.30
2018-06-16T11:04:03.316Z,49.20
2018-06-16T11:05:07.836Z,49.20
2018-06-16T11:06:12.404Z,49.20
2018-06-16T11:07:15.821Z,49.00
2018-06-16T11:08:19.207Z,48.60
2018-06-16T11:09:22.595Z,48.70
2018-06-16T11:10:27.632Z,48.70
2018-06-16T11:11:31.116Z,48.80
2018-06-16T11:12:34.502Z,48.90
2018-06-16T11:13:37.883Z,49.00
2018-06-16T11:14:41.263Z,49.10
2018-06-16T11:15:46.273Z,49.10
2018-06-16T11:16:49.699Z,49.00
2018-06-16T11:17:53.283Z,48.80
2018-06-16T11:18:56.660Z,48.90
2018-06-16T11:20:00.054Z,49.20
2018-06-16T11:21:04.927Z,49.30
2018-06-16T11:22:08.355Z,49.50
2018-06-16T11:23:11.737Z,49.60
2018-06-16T11:24:15.124Z,49.40
2018-06-16T11:25:18.972Z,49.30
2018-06-16T11:26:22.979Z,49.10
2018-06-16T11:27:26.415Z,48.50
2018-06-16T11:28:29.819Z,48.20
2018-06-16T11:29:33.283Z,48.30
2018-06-16T11:30:37.818Z,48.60
2018-06-16T11:31:41.216Z,49.00
2018-06-16T11:32:44.619Z,49.20
2018-06-16T11:34:55.627Z,49.70
2018-06-16T11:36:00.523Z,49.30
2018-06-16T11:37:03.927Z,49.70
2018-06-16T11:38:07.898Z,49.80
2018-06-16T11:39:12.056Z,49.80
2018-06-16T11:40:16.378Z,49.40
2018-06-16T11:41:20.820Z,48.70
2018-06-16T11:42:24.215Z,48.40
2018-06-16T11:43:27.616Z,48.60
2018-06-16T11:44:31.016Z,49.10
2018-06-16T11:45:35.542Z,49.30
2018-06-16T11:49:48.267Z,48.90
2018-06-16T11:50:52.669Z,48.70
2018-06-16T11:51:56.088Z,48.30
2018-06-16T11:52:59.479Z,48.20
2018-06-16T11:55:07.080Z,48.00
2018-06-16T11:56:11.634Z,47.80
2018-06-16T11:57:15.048Z,47.80
2018-06-16T11:58:18.452Z,47.80
2018-06-16T11:59:21.871Z,47.90
2018-06-16T12:00:28.313Z,48.00
2018-06-16T12:01:31.731Z,48.10
2018-06-16T12:02:35.111Z,48.30
2018-06-16T12:03:38.513Z,48.20
2018-06-16T12:04:41.919Z,48.30
2018-06-16T12:05:46.341Z,48.20
2018-06-16T12:06:49.761Z,48.50
2018-06-16T12:08:56.384Z,47.90
2018-06-16T12:09:59.796Z,47.70
2018-06-16T12:11:04.186Z,47.60
2018-06-16T12:12:07.582Z,47.70
2018-06-16T12:13:10.971Z,47.60
2018-06-16T12:14:14.355Z,47.60
2018-06-16T12:15:18.804Z,47.50
2018-06-16T12:16:22.981Z,47.60
2018-06-16T12:18:29.447Z,47.70
2018-06-16T12:19:32.835Z,47.70
2018-06-16T12:20:37.755Z,47.60
2018-06-16T12:21:41.183Z,47.10
2018-06-16T12:22:44.755Z,46.90
2018-06-16T12:23:48.192Z,46.60
2018-06-16T12:24:51.537Z,46.60
2018-06-16T12:25:56.067Z,46.70
2018-06-16T12:26:59.463Z,46.60
2018-06-16T12:28:02.864Z,45.80
2018-06-16T12:29:06.251Z,45.00
2018-06-16T12:30:10.571Z,44.80
2018-06-16T12:31:15.477Z,44.90
2018-06-16T12:32:18.895Z,45.30
2018-06-16T12:33:22.275Z,45.70
2018-06-16T12:34:25.663Z,45.90
2018-06-16T12:36:32.958Z,46.20
2018-06-16T12:37:36.335Z,46.30
2018-06-16T12:38:39.785Z,46.20
2018-06-16T12:39:43.136Z,46.10
2018-06-16T12:40:47.564Z,46.00
2018-06-16T12:41:51.012Z,46.20
2018-06-16T12:42:54.420Z,46.40
2018-06-16T12:43:57.820Z,46.80
2018-06-16T12:45:01.217Z,47.10
2018-06-16T12:46:05.606Z,47.20
2018-06-16T12:47:09.075Z,47.40
2018-06-16T12:48:12.711Z,47.50
2018-06-16T12:49:16.168Z,47.70
2018-06-16T12:50:20.763Z,47.80
2018-06-16T12:51:25.284Z,47.50
2018-06-16T12:52:28.720Z,47.50
2018-06-16T12:53:32.174Z,47.40
2018-06-16T12:54:35.687Z,47.50
2018-06-16T12:55:40.064Z,47.40
2018-06-16T12:56:43.549Z,47.40
2018-06-16T12:57:46.956Z,47.50
2018-06-16T12:58:50.559Z,47.70
2018-06-16T12:59:54.004Z,47.80
2018-06-16T13:00:58.635Z,47.80
2018-06-16T13:02:02.115Z,47.90
2018-06-16T13:03:05.519Z,48.00
2018-06-16T13:04:08.906Z,48.30
2018-06-16T13:05:13.317Z,48.60
2018-06-16T13:06:18.268Z,48.60
2018-06-16T13:09:27.883Z,49.10
2018-06-16T13:10:32.430Z,49.30
2018-06-16T13:11:35.813Z,49.30
2018-06-16T13:12:39.399Z,49.50
2018-06-16T13:13:43.115Z,49.80
2018-06-16T13:14:46.507Z,50.10
2018-06-16T13:16:53.836Z,50.30
2018-06-16T13:17:57.228Z,50.80
2018-06-16T13:19:01.064Z,51.10
2018-06-16T13:20:05.115Z,51.40
2018-06-16T13:21:09.577Z,51.50
2018-06-16T13:22:12.984Z,51.70
2018-06-16T13:23:16.623Z,51.80
2018-06-16T13:24:20.028Z,52.20
2018-06-16T13:25:24.863Z,52.30
2018-06-16T13:26:29.843Z,52.50
2018-06-16T13:27:33.251Z,52.80
2018-06-16T13:28:36.639Z,52.80
2018-06-16T13:29:40.055Z,52.70
2018-06-16T13:30:44.517Z,52.80
2018-06-16T13:31:47.979Z,52.80
2018-06-16T13:32:51.360Z,52.70
2018-06-16T13:33:54.743Z,52.70
2018-06-16T13:34:58.156Z,52.80
2018-06-16T13:36:04.293Z,52.90
2018-06-16T13:37:07.715Z,52.80
2018-06-16T13:38:11.099Z,52.90
2018-06-16T13:39:14.475Z,52.70
2018-06-16T13:40:18.883Z,52.80
2018-06-16T13:41:23.184Z,52.80
2018-06-16T13:42:26.572Z,52.60
2018-06-16T13:43:29.955Z,52.90
2018-06-16T13:44:33.383Z,53.10
2018-06-16T13:45:37.962Z,53.40
2018-06-16T13:46:41.355Z,53.50
2018-06-16T13:47:44.731Z,53.30
2018-06-16T13:48:48.119Z,53.20
2018-06-16T13:49:51.508Z,53.30
2018-06-16T13:50:55.949Z,53.30
2018-06-16T13:54:05.520Z,53.10
2018-06-16T13:57:16.867Z,53.10
2018-06-16T13:58:20.270Z,53.10
2018-06-16T14:00:27.889Z,53.00
2018-06-16T14:01:31.339Z,52.70
2018-06-16T14:02:34.736Z,52.40
2018-06-16T14:06:48.139Z,51.30
2018-06-16T14:07:51.521Z,51.00
2018-06-16T14:08:54.906Z,51.30
2018-06-16T14:09:58.280Z,51.40
2018-06-16T14:11:02.965Z,51.30
2018-06-16T14:12:06.391Z,51.40
2018-06-16T14:13:09.767Z,50.50
2018-06-16T14:14:13.144Z,50.20
2018-06-16T14:15:17.689Z,49.60
2018-06-16T14:17:25.135Z,49.40
2018-06-16T14:18:28.511Z,49.10
2018-06-16T14:19:31.891Z,48.60
2018-06-16T14:23:45.467Z,48.60
2018-06-16T14:24:48.848Z,48.80
2018-06-16T14:25:53.332Z,49.20
2018-06-16T14:26:56.731Z,48.70
2018-06-16T14:28:00.175Z,48.50
2018-06-16T14:29:03.555Z,48.80
2018-06-16T14:30:08.321Z,48.20
2018-06-16T14:31:13.741Z,48.20
2018-06-16T14:32:17.153Z,48.20
2018-06-16T14:33:20.567Z,48.10
2018-06-16T14:34:23.960Z,48.00
2018-06-16T14:35:28.288Z,47.40
2018-06-16T14:36:31.764Z,47.50
2018-06-16T14:37:35.143Z,46.60
2018-06-16T14:38:38.531Z,46.50
2018-06-16T14:39:41.901Z,46.50
2018-06-16T14:40:46.339Z,46.40
2018-06-16T14:41:49.748Z,46.40
2018-06-16T14:42:53.135Z,46.30
2018-06-16T14:43:56.549Z,46.70
2018-06-16T14:44:59.949Z,46.10
2018-06-16T14:46:04.403Z,45.90
2018-06-16T14:47:07.824Z,45.90
2018-06-16T14:48:11.183Z,46.00
2018-06-16T14:49:14.567Z,45.50
2018-06-16T14:50:19.245Z,45.20
2018-06-16T14:51:23.381Z,45.10
2018-06-16T14:52:26.815Z,45.00
2018-06-16T14:53:30.204Z,45.10
2018-06-16T14:54:33.603Z,45.40
2018-06-16T14:55:38.059Z,45.50
2018-06-16T14:56:41.462Z,45.70
2018-06-16T14:58:47.899Z,45.70
2018-06-16T14:59:51.387Z,45.30
2018-06-16T15:00:57.737Z,45.50
2018-06-16T15:02:01.132Z,45.70
2018-06-16T15:03:04.520Z,45.60
2018-06-16T15:04:07.899Z,45.50
2018-06-16T15:05:12.455Z,44.90
2018-06-16T15:06:17.014Z,45.20
2018-06-16T15:07:20.403Z,44.70
2018-06-16T15:08:23.779Z,44.80
2018-06-16T15:09:27.170Z,44.90
2018-06-16T15:10:31.649Z,44.80
2018-06-16T15:11:35.015Z,44.70
2018-06-16T15:12:38.412Z,44.70
2018-06-16T15:13:41.812Z,44.70
2018-06-16T15:14:45.223Z,44.70
2018-06-16T15:15:49.681Z,44.20
2018-06-16T15:16:53.107Z,44.00
2018-06-16T15:17:56.476Z,44.00
2018-06-16T15:18:59.856Z,44.50
2018-06-16T15:20:03.293Z,44.00
2018-06-16T15:21:07.741Z,44.10
2018-06-16T15:22:11.155Z,44.70